CMN6 weather

Edmonton/Morinville (Mike's Field)
Alberta, Canada

Public forecast

Using degrees Celsius for public forecast. Weather courtesy of forecast.io.

Closest aviation weather report (METAR) to Edmonton/Morinville (Mike's Field)

Closest report is Edmonton (CFB Namao) Heliport, 10.6 nm (19.7 km) SSE. Retrieved 2020/08/05 03:00 UTC (54 minutes ago):

CYED 050300Z AUTO 22004KT 9SM CLR 21/11 A2995 RMK SLP145

Closest aviation forecast (TAF) to Edmonton/Morinville (Mike's Field)

Closest forecast is Edmonton (CFB Namao) Heliport, 10.6 nm (19.7 km) SSE. Retrieved 2020-08-05 00:33 UTC (3 hours ago):

TAF CYED 042330Z 0500/0512 23008KT P6SM FEW050 BECMG 0501/0503 VRB03KT RMK FCST BASED ON AUTO OBS NXT FCST BY 050600Z